Hornet, Minnesota
Current Conditions -  °F | °C
As of 10:13 PM on Wednesday 28 Jan 2015 (Local Time) from KVWU Reporting Station
Overcast Overcast  
Wind Chill: 22°   Ceiling: 1300
Heat Index: 30°   Visibility: 10mi
Dew Point: 30°   Wind: 9mph
Humidity: 100%   Direction: 310°NW
Pressure: 29.88"   Gusts: 17mph
Location:  47.7306°N, 94.3762°W
Report Text: KVWU 290413Z AUTO 31008G15KT 10SM OVC013 M01/M01 A2988 RMK AO2
Loading
Personal Weather Stations






























Interactive Weather Map New forecast layout! Learn more

10-Day Weather Forecast

Advertisements
Track Severe Weather on mobile